Pineland, FL

9:34 PM EDT on September 01, 2014 (GMT -0400)
Page | Change Station
CLOSE
Current Station
Airport
Location: Fort Myers,
Elevation: 16 ft
Nearby Weather Stations

Elev 16 ft 26.58 °N, 81.86 °W | Updated 41 minutes ago

Mostly Cloudy
Mostly Cloudy
79 °F
Feels Like 79 °F
N
0
Wind Variable Wind from North

Today
High -- | Low -- °F
--% Chance of Precip.
Yesterday
High -- | Low -- °F
Precip. -- in
7:08 AM 7:48 PM
Waxing Crescent, 46% visible
Pressure 30.06 in
Visibility 10.0 miles
Clouds Mostly Cloudy 8500 ft
Dew Point 71 °F
Humidity 77%
Rainfall 0.00 in
Snow Depth Not available.
UV 0 out of 12
Pollen 5.20 out of 12
Air Quality Not available.
Flu Activity Not available.
METAR KFMY 020053Z 00000KT 10SM BKN085 26/22 A3006 RMK AO2 SLP180 T02610217

More Conditions Fewer Conditions

Pressure 30.06 in
Visibility 10.0 miles
Clouds Mostly Cloudy 8500 ft
Dew Point 71 °F
Humidity 77%
Rainfall 0.00 in
Snow Depth Not available.
UV 0 out of 12
Pollen 5.20 out of 12
Air Quality Not available.
Flu Activity Not available.
METAR KFMY 020053Z 00000KT 10SM BKN085 26/22 A3006 RMK AO2 SLP180 T02610217

More Conditions Fewer Conditions

10-Day Weather Forecast

Almanac

Astronomy

Sep. 01, 2014 Rise Set
Actual Time 7:08 AM EDT 7:48 PM EDT
Civil Twilight 6:44 AM EDT 8:11 PM EDT
Nautical Twilight 6:16 AM EDT 8:39 PM EDT
Astronomical Twilight 5:48 AM EDT 9:07 PM EDT
Moon 1:15 PM EDT (9/1) No Moon Set
Length of Visible Light 13h 27m
Length of Day
12h 40m
Tomorrow will be 1m 30s shorter.
Waxing Crescent, 46% of the Moon is Illuminated
Today
Waxing Crescent
Sep 2
First Quarter
Sep 8
Full
Sep 15
Last Quarter
Sep 24
New

Today's Extremes

State Highs State Lows

Community

WunderPhotos

Upload Photos

1,749,476 photos uploaded!

Nearby

Snow Depth

Station Depth Elevation
No new snow has been reported.

Earthquake Activity

City Distance Mag. Time & Date
No recent earthquake activity has been reported nearby.
Minimum magnitude displayed is 2.5.

Coastal Water Temperatures

Place Temperature
No Stations Reporting

Nearby Weather Stations